• Join FlightAware (Why Join?)
  • Login
  • US Flag 
10:10PM EDT


 

Airport Tracker/Info


-or-


 

Live Flight TrackerFlight Track Log ✈ EJA951 ✈ 16-Jul-2013 ✈ KDWH - KAUS

Flight Track Log - Related Links

Times and Time Zones

All times are in EDT time to prevent confusion due to time zone crossing. See the EJA951 flight status page for this flight to view local times or setup timezone preferences in your user account.

Time Position Orientation Groundspeed Altitude Reporting Facility
EDT Latitude Longitude Course Direction KTS MPH feet Rate Location/Type
02:47PM 30.0442 -95.6064 271° West 214 246 1,900  Level Houston Center
02:48PM 30.1000 -95.6189 349° North 214 246 2,600 1,620 Climbing Houston Center
02:49PM 30.1203 -95.6461 311° West 223 257 4,400 3,300 Climbing Houston Center
02:50PM 30.1231 -95.7208 272° West 230 265 7,700 2,940 Climbing Houston Center
02:51PM 30.1139 -95.8042 263° West 260 299 10,500 1,980 Climbing Houston Center
02:52PM 30.0753 -95.8928 243° Southwest 314 361 11,900 720 Climbing Houston Center
02:53PM 29.9928 -95.9561 214° Southwest 373 429 12,000  Climbing Houston Center
02:54PM 29.8964 -95.9811 193° South 361 415 12,000  Level Houston Center
02:55PM 29.8608 -96.1092 252° West 372 428 12,000 -60 Level Houston Center
02:56PM 29.8933 -96.2369 286° West 410 472 11,900 -60 Descending Houston Center
02:57PM 29.9264 -96.3683 286° West 427 491 11,900  Level Houston Center
02:58PM 29.9781 -96.4822 298° West 411 473 11,900  Level Houston Center
02:59PM 30.0081 -96.6089 285° West 412 474 11,900  Level Houston Center
03:00PM 30.0436 -96.7656 285° West 421 484 11,900  Level Houston Center
03:01PM 30.0769 -96.8917 287° West 417 480 12,000 -480 Climbing Houston Center
03:02PM 30.1278 -96.9919 300° West 362 417 11,000 -1,260 Descending Houston Center
03:03PM 30.1742 -97.0811 301° West 325 374 9,500 -1,500 Descending Houston Center
03:04PM 30.2172 -97.1650 301° West 305 351 7,900 -1,500 Descending Houston Center
03:05PM 30.2589 -97.2458 301° West 292 336 6,400 -1,260 Descending Houston Center
03:06PM 30.2886 -97.3372 291° West 303 349 5,300 -1,200 Descending Houston Center
03:07PM 30.3119 -97.4406 285° West 285 328 4,000 -660 Descending Houston Center
03:08PM 30.3339 -97.5239 287° West 274 315 4,000 -420 Level Houston Center
03:09PM 30.3333 -97.5881 269° West 208 239 3,200 -1,020 Descending Houston Center
03:11PM 30.3083 -97.6444 243° Southwest 205 236 2,000 -780 Descending Houston Center
03:12PM 30.2650 -97.6586 196° South 191 220 1,700 -540 Descending Houston Center
03:13PM 30.2225 -97.6581 179° South 166 191 900 -480 Descending Houston Center
03:14PM 30.1844 -97.6550 176° South 161 185 800 -120 Descending Houston Center